sensor_id;sensor_type;location;lat;lon;timestamp;P1;durP1;ratioP1;P2;durP2;ratioP2
52940;SDS011;62001;53.366;6.636;2023-06-22T00:02:18;45.17;;;34.35;;
52940;SDS011;62001;53.366;6.636;2023-06-22T00:04:44;38.83;;;33.55;;
52940;SDS011;62001;53.366;6.636;2023-06-22T00:07:09;42.65;;;33.95;;
52940;SDS011;62001;53.366;6.636;2023-06-22T00:09:36;24.58;;;14.10;;
52940;SDS011;62001;53.366;6.636;2023-06-22T00:12:01;14.60;;;13.20;;
52940;SDS011;62001;53.366;6.636;2023-06-22T00:14:28;15.30;;;13.70;;
52940;SDS011;62001;53.366;6.636;2023-06-22T00:16:54;25.67;;;21.02;;
52940;SDS011;62001;53.366;6.636;2023-06-22T00:19:22;26.73;;;22.50;;
52940;SDS011;62001;53.366;6.636;2023-06-22T00:21:49;33.60;;;27.63;;
52940;SDS011;62001;53.366;6.636;2023-06-22T00:24:18;34.67;;;28.50;;
52940;SDS011;62001;53.366;6.636;2023-06-22T00:26:44;18.83;;;15.98;;
52940;SDS011;62001;53.366;6.636;2023-06-22T00:29:11;11.15;;;9.95;;
52940;SDS011;62001;53.366;6.636;2023-06-22T00:31:36;9.63;;;8.68;;
52940;SDS011;62001;53.366;6.636;2023-06-22T00:34:02;3.60;;;3.30;;
52940;SDS011;62001;53.366;6.636;2023-06-22T00:36:28;4.25;;;3.85;;
52940;SDS011;62001;53.366;6.636;2023-06-22T00:38:54;4.85;;;4.45;;
52940;SDS011;62001;53.366;6.636;2023-06-22T00:41:20;10.00;;;9.02;;
52940;SDS011;62001;53.366;6.636;2023-06-22T00:43:46;5.00;;;4.60;;
52940;SDS011;62001;53.366;6.636;2023-06-22T00:46:12;7.88;;;6.97;;
52940;SDS011;62001;53.366;6.636;2023-06-22T00:48:38;7.47;;;6.78;;
52940;SDS011;62001;53.366;6.636;2023-06-22T00:51:05;8.18;;;7.45;;
52940;SDS011;62001;53.366;6.636;2023-06-22T00:53:31;20.23;;;17.98;;
52940;SDS011;62001;53.366;6.636;2023-06-22T00:56:00;20.33;;;17.27;;
52940;SDS011;62001;53.366;6.636;2023-06-22T00:58:28;12.95;;;11.73;;
52940;SDS011;62001;53.366;6.636;2023-06-22T01:00:54;7.93;;;7.30;;
52940;SDS011;62001;53.366;6.636;2023-06-22T01:03:20;6.88;;;6.18;;
52940;SDS011;62001;53.366;6.636;2023-06-22T01:05:46;6.80;;;6.30;;
52940;SDS011;62001;53.366;6.636;2023-06-22T01:10:50;17.58;;;14.38;;
52940;SDS011;62001;53.366;6.636;2023-06-22T01:16:08;24.45;;;18.35;;
52940;SDS011;62001;53.366;6.636;2023-06-22T01:18:40;26.25;;;21.30;;
52940;SDS011;62001;53.366;6.636;2023-06-22T01:21:09;175.57;;;17.13;;
52940;SDS011;62001;53.366;6.636;2023-06-22T01:26:42;14.57;;;12.73;;
52940;SDS011;62001;53.366;6.636;2023-06-22T01:29:17;13.93;;;10.60;;
52940;SDS011;62001;53.366;6.636;2023-06-22T01:31:45;477.90;;;23.85;;
52940;SDS011;62001;53.366;6.636;2023-06-22T01:34:14;381.90;;;20.10;;
52940;SDS011;62001;53.366;6.636;2023-06-22T01:36:41;206.68;;;15.52;;
52940;SDS011;62001;53.366;6.636;2023-06-22T01:39:08;11.70;;;10.50;;
52940;SDS011;62001;53.366;6.636;2023-06-22T01:41:36;18.90;;;16.30;;
52940;SDS011;62001;53.366;6.636;2023-06-22T01:44:06;18.40;;;15.55;;
52940;SDS011;62001;53.366;6.636;2023-06-22T01:49:01;23.75;;;20.05;;
52940;SDS011;62001;53.366;6.636;2023-06-22T01:51:27;32.35;;;13.38;;
52940;SDS011;62001;53.366;6.636;2023-06-22T01:53:53;459.60;;;28.27;;
52940;SDS011;62001;53.366;6.636;2023-06-22T01:56:20;302.80;;;21.92;;
52940;SDS011;62001;53.366;6.636;2023-06-22T02:01:42;250.27;;;26.23;;
52940;SDS011;62001;53.366;6.636;2023-06-22T02:04:20;298.73;;;28.92;;
52940;SDS011;62001;53.366;6.636;2023-06-22T02:06:51;344.83;;;33.55;;
52940;SDS011;62001;53.366;6.636;2023-06-22T02:09:20;42.67;;;23.75;;
52940;SDS011;62001;53.366;6.636;2023-06-22T02:11:49;29.15;;;21.25;;
52940;SDS011;62001;53.366;6.636;2023-06-22T02:14:19;43.13;;;31.10;;
52940;SDS011;62001;53.366;6.636;2023-06-22T02:16:47;36.20;;;28.23;;
52940;SDS011;62001;53.366;6.636;2023-06-22T02:19:13;189.63;;;33.33;;
52940;SDS011;62001;53.366;6.636;2023-06-22T02:21:41;55.63;;;36.75;;
52940;SDS011;62001;53.366;6.636;2023-06-22T02:24:07;40.45;;;31.08;;
52940;SDS011;62001;53.366;6.636;2023-06-22T02:26:33;50.92;;;27.23;;
52940;SDS011;62001;53.366;6.636;2023-06-22T02:28:59;36.60;;;30.23;;
52940;SDS011;62001;53.366;6.636;2023-06-22T02:31:25;236.93;;;30.85;;
52940;SDS011;62001;53.366;6.636;2023-06-22T02:33:58;27.92;;;25.02;;
52940;SDS011;62001;53.366;6.636;2023-06-22T02:36:25;38.97;;;30.38;;
52940;SDS011;62001;53.366;6.636;2023-06-22T02:38:52;28.17;;;24.38;;
52940;SDS011;62001;53.366;6.636;2023-06-22T02:41:19;59.35;;;43.88;;
52940;SDS011;62001;53.366;6.636;2023-06-22T02:43:45;45.85;;;36.35;;
52940;SDS011;62001;53.366;6.636;2023-06-22T02:46:12;30.33;;;26.65;;
52940;SDS011;62001;53.366;6.636;2023-06-22T02:48:39;34.58;;;28.00;;
52940;SDS011;62001;53.366;6.636;2023-06-22T02:51:05;34.80;;;27.13;;
52940;SDS011;62001;53.366;6.636;2023-06-22T02:53:32;49.95;;;27.95;;
52940;SDS011;62001;53.366;6.636;2023-06-22T02:55:58;390.40;;;26.58;;
52940;SDS011;62001;53.366;6.636;2023-06-22T02:58:23;635.08;;;37.63;;
52940;SDS011;62001;53.366;6.636;2023-06-22T03:00:49;467.05;;;27.65;;
52940;SDS011;62001;53.366;6.636;2023-06-22T03:03:18;336.98;;;28.42;;
52940;SDS011;62001;53.366;6.636;2023-06-22T03:05:44;145.90;;;24.27;;
52940;SDS011;62001;53.366;6.636;2023-06-22T03:08:10;45.63;;;22.85;;
52940;SDS011;62001;53.366;6.636;2023-06-22T03:10:36;66.47;;;23.50;;
52940;SDS011;62001;53.366;6.636;2023-06-22T03:13:02;25.90;;;22.88;;
52940;SDS011;62001;53.366;6.636;2023-06-22T03:15:29;25.33;;;22.33;;
52940;SDS011;62001;53.366;6.636;2023-06-22T03:17:56;27.38;;;22.85;;
52940;SDS011;62001;53.366;6.636;2023-06-22T03:20:22;39.03;;;29.23;;
52940;SDS011;62001;53.366;6.636;2023-06-22T03:22:48;69.15;;;28.92;;
52940;SDS011;62001;53.366;6.636;2023-06-22T03:25:14;35.28;;;29.60;;
52940;SDS011;62001;53.366;6.636;2023-06-22T03:27:40;811.47;;;53.38;;
52940;SDS011;62001;53.366;6.636;2023-06-22T03:30:08;520.10;;;41.95;;
52940;SDS011;62001;53.366;6.636;2023-06-22T03:32:35;416.67;;;39.17;;
52940;SDS011;62001;53.366;6.636;2023-06-22T03:35:01;225.13;;;27.45;;
52940;SDS011;62001;53.366;6.636;2023-06-22T03:37:28;353.02;;;28.17;;
52940;SDS011;62001;53.366;6.636;2023-06-22T03:39:54;512.38;;;41.28;;
52940;SDS011;62001;53.366;6.636;2023-06-22T03:42:20;512.03;;;43.67;;
52940;SDS011;62001;53.366;6.636;2023-06-22T03:44:46;144.90;;;27.63;;
52940;SDS011;62001;53.366;6.636;2023-06-22T03:47:13;589.60;;;47.15;;
52940;SDS011;62001;53.366;6.636;2023-06-22T03:49:38;408.02;;;38.80;;
52940;SDS011;62001;53.366;6.636;2023-06-22T03:52:05;159.90;;;31.52;;
52940;SDS011;62001;53.366;6.636;2023-06-22T03:54:31;728.92;;;55.55;;
52940;SDS011;62001;53.366;6.636;2023-06-22T03:56:57;708.42;;;55.75;;
52940;SDS011;62001;53.366;6.636;2023-06-22T03:59:24;509.30;;;48.47;;
52940;SDS011;62001;53.366;6.636;2023-06-22T04:01:50;402.95;;;36.20;;
52940;SDS011;62001;53.366;6.636;2023-06-22T04:04:19;455.70;;;45.70;;
52940;SDS011;62001;53.366;6.636;2023-06-22T04:06:45;252.15;;;31.48;;
52940;SDS011;62001;53.366;6.636;2023-06-22T04:09:11;149.93;;;27.10;;
52940;SDS011;62001;53.366;6.636;2023-06-22T04:11:37;128.73;;;27.17;;
52940;SDS011;62001;53.366;6.636;2023-06-22T04:14:03;255.60;;;30.13;;
52940;SDS011;62001;53.366;6.636;2023-06-22T04:16:29;150.05;;;27.35;;
52940;SDS011;62001;53.366;6.636;2023-06-22T04:18:54;251.55;;;33.40;;
52940;SDS011;62001;53.366;6.636;2023-06-22T04:21:20;173.93;;;31.60;;
52940;SDS011;62001;53.366;6.636;2023-06-22T04:23:46;67.05;;;32.90;;
52940;SDS011;62001;53.366;6.636;2023-06-22T04:26:12;111.90;;;37.83;;
52940;SDS011;62001;53.366;6.636;2023-06-22T04:28:41;47.30;;;37.88;;
52940;SDS011;62001;53.366;6.636;2023-06-22T04:31:07;57.50;;;40.42;;
52940;SDS011;62001;53.366;6.636;2023-06-22T04:33:33;52.08;;;38.22;;
52940;SDS011;62001;53.366;6.636;2023-06-22T04:35:59;43.92;;;38.10;;
52940;SDS011;62001;53.366;6.636;2023-06-22T04:38:29;50.58;;;39.47;;
52940;SDS011;62001;53.366;6.636;2023-06-22T04:40:58;51.42;;;41.30;;
52940;SDS011;62001;53.366;6.636;2023-06-22T04:43:27;51.42;;;41.17;;
52940;SDS011;62001;53.366;6.636;2023-06-22T04:45:56;58.65;;;45.15;;
52940;SDS011;62001;53.366;6.636;2023-06-22T04:48:28;48.00;;;39.53;;
52940;SDS011;62001;53.366;6.636;2023-06-22T04:50:58;62.55;;;47.97;;
52940;SDS011;62001;53.366;6.636;2023-06-22T04:53:28;69.75;;;51.78;;
52940;SDS011;62001;53.366;6.636;2023-06-22T04:55:55;69.25;;;48.50;;
52940;SDS011;62001;53.366;6.636;2023-06-22T04:58:20;64.95;;;48.35;;
52940;SDS011;62001;53.366;6.636;2023-06-22T05:00:47;61.28;;;46.55;;
52940;SDS011;62001;53.366;6.636;2023-06-22T05:03:13;58.78;;;47.35;;
52940;SDS011;62001;53.366;6.636;2023-06-22T05:05:38;60.28;;;47.75;;
52940;SDS011;62001;53.366;6.636;2023-06-22T05:08:04;65.50;;;51.20;;
52940;SDS011;62001;53.366;6.636;2023-06-22T05:10:32;49.50;;;38.05;;
52940;SDS011;62001;53.366;6.636;2023-06-22T05:12:58;48.17;;;40.45;;
52940;SDS011;62001;53.366;6.636;2023-06-22T05:15:24;45.65;;;40.03;;
52940;SDS011;62001;53.366;6.636;2023-06-22T05:17:55;50.80;;;40.65;;
52940;SDS011;62001;53.366;6.636;2023-06-22T05:20:21;46.63;;;38.25;;
52940;SDS011;62001;53.366;6.636;2023-06-22T05:22:47;42.00;;;36.17;;
52940;SDS011;62001;53.366;6.636;2023-06-22T05:25:13;45.63;;;36.97;;
52940;SDS011;62001;53.366;6.636;2023-06-22T05:27:39;42.47;;;36.50;;
52940;SDS011;62001;53.366;6.636;2023-06-22T05:30:05;35.53;;;30.90;;
52940;SDS011;62001;53.366;6.636;2023-06-22T05:32:32;32.60;;;29.10;;
52940;SDS011;62001;53.366;6.636;2023-06-22T05:34:58;36.55;;;31.08;;
52940;SDS011;62001;53.366;6.636;2023-06-22T05:37:24;38.65;;;32.33;;
52940;SDS011;62001;53.366;6.636;2023-06-22T05:39:51;35.60;;;31.77;;
52940;SDS011;62001;53.366;6.636;2023-06-22T05:42:17;35.35;;;31.58;;
52940;SDS011;62001;53.366;6.636;2023-06-22T05:44:43;36.17;;;32.10;;
52940;SDS011;62001;53.366;6.636;2023-06-22T05:47:09;35.90;;;31.38;;
52940;SDS011;62001;53.366;6.636;2023-06-22T05:49:35;38.75;;;31.42;;
52940;SDS011;62001;53.366;6.636;2023-06-22T05:52:00;34.13;;;30.45;;
52940;SDS011;62001;53.366;6.636;2023-06-22T05:54:27;35.92;;;29.98;;
52940;SDS011;62001;53.366;6.636;2023-06-22T05:56:53;32.00;;;28.40;;
52940;SDS011;62001;53.366;6.636;2023-06-22T05:59:19;35.58;;;28.90;;
52940;SDS011;62001;53.366;6.636;2023-06-22T06:01:45;31.10;;;27.38;;
52940;SDS011;62001;53.366;6.636;2023-06-22T06:04:15;28.88;;;25.63;;
52940;SDS011;62001;53.366;6.636;2023-06-22T06:06:44;27.40;;;24.50;;
52940;SDS011;62001;53.366;6.636;2023-06-22T06:09:12;28.67;;;25.58;;
52940;SDS011;62001;53.366;6.636;2023-06-22T06:11:39;26.65;;;23.73;;
52940;SDS011;62001;53.366;6.636;2023-06-22T06:14:05;27.13;;;24.00;;
52940;SDS011;62001;53.366;6.636;2023-06-22T06:16:31;28.17;;;25.17;;
52940;SDS011;62001;53.366;6.636;2023-06-22T06:18:57;27.05;;;23.75;;
52940;SDS011;62001;53.366;6.636;2023-06-22T06:21:23;28.80;;;25.42;;
52940;SDS011;62001;53.366;6.636;2023-06-22T06:23:49;27.20;;;23.73;;
52940;SDS011;62001;53.366;6.636;2023-06-22T06:26:15;29.80;;;24.35;;
52940;SDS011;62001;53.366;6.636;2023-06-22T06:28:53;28.55;;;24.48;;
52940;SDS011;62001;53.366;6.636;2023-06-22T06:31:20;28.95;;;24.60;;
52940;SDS011;62001;53.366;6.636;2023-06-22T06:33:46;29.02;;;23.80;;
52940;SDS011;62001;53.366;6.636;2023-06-22T06:36:11;28.67;;;23.98;;
52940;SDS011;62001;53.366;6.636;2023-06-22T06:38:37;32.40;;;28.65;;
52940;SDS011;62001;53.366;6.636;2023-06-22T06:41:03;28.65;;;25.55;;
52940;SDS011;62001;53.366;6.636;2023-06-22T06:43:29;26.98;;;23.23;;
52940;SDS011;62001;53.366;6.636;2023-06-22T06:45:55;29.20;;;23.98;;
52940;SDS011;62001;53.366;6.636;2023-06-22T06:48:21;29.73;;;24.60;;
52940;SDS011;62001;53.366;6.636;2023-06-22T06:50:47;31.80;;;27.60;;
52940;SDS011;62001;53.366;6.636;2023-06-22T06:53:12;32.00;;;26.20;;
52940;SDS011;62001;53.366;6.636;2023-06-22T06:55:38;31.65;;;27.80;;
52940;SDS011;62001;53.366;6.636;2023-06-22T06:58:04;32.33;;;28.63;;
52940;SDS011;62001;53.366;6.636;2023-06-22T07:00:32;28.63;;;24.88;;
52940;SDS011;62001;53.366;6.636;2023-06-22T07:02:58;29.30;;;25.33;;
52940;SDS011;62001;53.366;6.636;2023-06-22T07:05:24;28.58;;;24.70;;
52940;SDS011;62001;53.366;6.636;2023-06-22T07:07:50;29.63;;;26.27;;
52940;SDS011;62001;53.366;6.636;2023-06-22T07:10:16;30.92;;;24.25;;
52940;SDS011;62001;53.366;6.636;2023-06-22T07:12:42;30.42;;;27.00;;
52940;SDS011;62001;53.366;6.636;2023-06-22T07:15:08;34.67;;;27.70;;
52940;SDS011;62001;53.366;6.636;2023-06-22T07:17:35;29.08;;;24.50;;
52940;SDS011;62001;53.366;6.636;2023-06-22T07:20:02;18.75;;;14.80;;
52940;SDS011;62001;53.366;6.636;2023-06-22T07:22:38;15.27;;;12.10;;
52940;SDS011;62001;53.366;6.636;2023-06-22T07:25:05;16.48;;;12.73;;
52940;SDS011;62001;53.366;6.636;2023-06-22T07:30:03;23.33;;;16.50;;
52940;SDS011;62001;53.366;6.636;2023-06-22T07:32:29;14.77;;;13.02;;
52940;SDS011;62001;53.366;6.636;2023-06-22T07:34:55;17.50;;;13.02;;
52940;SDS011;62001;53.366;6.636;2023-06-22T07:37:21;16.23;;;13.75;;
52940;SDS011;62001;53.366;6.636;2023-06-22T07:39:47;17.33;;;13.77;;
52940;SDS011;62001;53.366;6.636;2023-06-22T07:42:15;18.08;;;13.82;;
52940;SDS011;62001;53.366;6.636;2023-06-22T07:44:44;15.90;;;13.53;;
52940;SDS011;62001;53.366;6.636;2023-06-22T07:47:09;16.27;;;12.00;;
52940;SDS011;62001;53.366;6.636;2023-06-22T07:49:35;17.85;;;13.60;;
52940;SDS011;62001;53.366;6.636;2023-06-22T07:52:01;12.57;;;9.63;;
52940;SDS011;62001;53.366;6.636;2023-06-22T07:54:27;11.43;;;9.38;;
52940;SDS011;62001;53.366;6.636;2023-06-22T07:56:53;8.68;;;7.72;;
52940;SDS011;62001;53.366;6.636;2023-06-22T07:59:19;11.68;;;9.05;;
52940;SDS011;62001;53.366;6.636;2023-06-22T08:01:45;11.50;;;9.98;;
52940;SDS011;62001;53.366;6.636;2023-06-22T08:04:10;10.05;;;8.13;;
52940;SDS011;62001;53.366;6.636;2023-06-22T08:06:36;11.77;;;7.90;;
52940;SDS011;62001;53.366;6.636;2023-06-22T08:09:02;9.32;;;8.30;;
52940;SDS011;62001;53.366;6.636;2023-06-22T08:11:28;9.45;;;7.72;;
52940;SDS011;62001;53.366;6.636;2023-06-22T08:13:54;11.07;;;9.70;;
52940;SDS011;62001;53.366;6.636;2023-06-22T08:16:21;10.38;;;8.00;;
52940;SDS011;62001;53.366;6.636;2023-06-22T08:18:47;11.63;;;8.32;;
52940;SDS011;62001;53.366;6.636;2023-06-22T08:21:12;11.13;;;8.77;;
52940;SDS011;62001;53.366;6.636;2023-06-22T08:23:38;10.05;;;8.48;;
52940;SDS011;62001;53.366;6.636;2023-06-22T08:26:04;10.38;;;6.63;;
52940;SDS011;62001;53.366;6.636;2023-06-22T08:28:30;9.10;;;6.88;;
52940;SDS011;62001;53.366;6.636;2023-06-22T08:30:56;9.55;;;7.45;;
52940;SDS011;62001;53.366;6.636;2023-06-22T08:33:22;15.43;;;9.38;;
52940;SDS011;62001;53.366;6.636;2023-06-22T08:35:54;11.27;;;6.38;;
52940;SDS011;62001;53.366;6.636;2023-06-22T08:38:20;9.15;;;6.38;;
52940;SDS011;62001;53.366;6.636;2023-06-22T08:40:46;9.88;;;7.15;;
52940;SDS011;62001;53.366;6.636;2023-06-22T08:43:12;8.63;;;7.07;;
52940;SDS011;62001;53.366;6.636;2023-06-22T08:45:38;7.75;;;6.35;;
52940;SDS011;62001;53.366;6.636;2023-06-22T08:48:04;10.80;;;6.60;;
52940;SDS011;62001;53.366;6.636;2023-06-22T08:50:30;8.07;;;5.88;;
52940;SDS011;62001;53.366;6.636;2023-06-22T08:52:56;8.30;;;6.63;;
52940;SDS011;62001;53.366;6.636;2023-06-22T08:55:22;7.55;;;5.95;;
52940;SDS011;62001;53.366;6.636;2023-06-22T08:57:48;7.82;;;6.32;;
52940;SDS011;62001;53.366;6.636;2023-06-22T09:00:14;10.38;;;8.23;;
52940;SDS011;62001;53.366;6.636;2023-06-22T09:02:42;14.02;;;7.78;;
52940;SDS011;62001;53.366;6.636;2023-06-22T09:05:12;9.35;;;7.70;;
52940;SDS011;62001;53.366;6.636;2023-06-22T09:07:38;11.25;;;8.10;;
52940;SDS011;62001;53.366;6.636;2023-06-22T09:10:05;10.30;;;8.18;;
52940;SDS011;62001;53.366;6.636;2023-06-22T09:12:32;13.43;;;8.77;;
52940;SDS011;62001;53.366;6.636;2023-06-22T09:14:58;10.75;;;8.95;;
52940;SDS011;62001;53.366;6.636;2023-06-22T09:17:28;12.93;;;9.40;;
52940;SDS011;62001;53.366;6.636;2023-06-22T09:19:54;12.40;;;8.40;;
52940;SDS011;62001;53.366;6.636;2023-06-22T09:22:20;10.98;;;8.05;;
52940;SDS011;62001;53.366;6.636;2023-06-22T09:24:46;9.90;;;8.07;;
52940;SDS011;62001;53.366;6.636;2023-06-22T09:27:12;8.32;;;7.28;;
52940;SDS011;62001;53.366;6.636;2023-06-22T09:29:37;10.20;;;8.20;;
52940;SDS011;62001;53.366;6.636;2023-06-22T09:32:03;9.60;;;7.97;;
52940;SDS011;62001;53.366;6.636;2023-06-22T09:34:29;9.85;;;7.22;;
52940;SDS011;62001;53.366;6.636;2023-06-22T09:36:56;11.50;;;7.53;;
52940;SDS011;62001;53.366;6.636;2023-06-22T09:39:25;10.77;;;8.15;;
52940;SDS011;62001;53.366;6.636;2023-06-22T09:41:51;9.13;;;8.00;;
52940;SDS011;62001;53.366;6.636;2023-06-22T09:44:17;10.55;;;8.00;;
52940;SDS011;62001;53.366;6.636;2023-06-22T09:46:43;10.23;;;7.32;;
52940;SDS011;62001;53.366;6.636;2023-06-22T09:49:09;11.60;;;7.90;;
52940;SDS011;62001;53.366;6.636;2023-06-22T09:51:35;11.13;;;7.07;;
52940;SDS011;62001;53.366;6.636;2023-06-22T09:54:01;8.05;;;5.28;;
52940;SDS011;62001;53.366;6.636;2023-06-22T09:56:27;7.85;;;6.53;;
52940;SDS011;62001;53.366;6.636;2023-06-22T09:58:54;9.73;;;7.80;;
52940;SDS011;62001;53.366;6.636;2023-06-22T10:01:20;9.60;;;6.55;;
52940;SDS011;62001;53.366;6.636;2023-06-22T10:03:46;9.50;;;6.55;;
52940;SDS011;62001;53.366;6.636;2023-06-22T10:06:12;10.82;;;8.48;;
52940;SDS011;62001;53.366;6.636;2023-06-22T10:08:38;10.55;;;9.13;;
52940;SDS011;62001;53.366;6.636;2023-06-22T10:11:05;13.13;;;9.35;;
52940;SDS011;62001;53.366;6.636;2023-06-22T10:13:32;9.30;;;7.47;;
52940;SDS011;62001;53.366;6.636;2023-06-22T10:15:57;9.48;;;7.30;;
52940;SDS011;62001;53.366;6.636;2023-06-22T10:18:23;11.55;;;9.32;;
52940;SDS011;62001;53.366;6.636;2023-06-22T10:20:49;11.63;;;8.60;;
52940;SDS011;62001;53.366;6.636;2023-06-22T10:23:17;11.70;;;9.38;;
52940;SDS011;62001;53.366;6.636;2023-06-22T10:25:43;9.55;;;7.82;;
52940;SDS011;62001;53.366;6.636;2023-06-22T10:28:09;10.35;;;6.97;;
52940;SDS011;62001;53.366;6.636;2023-06-22T10:30:35;12.35;;;9.32;;
52940;SDS011;62001;53.366;6.636;2023-06-22T10:33:00;9.52;;;8.27;;
52940;SDS011;62001;53.366;6.636;2023-06-22T10:35:26;11.15;;;9.23;;
52940;SDS011;62001;53.366;6.636;2023-06-22T10:37:52;8.75;;;6.93;;
52940;SDS011;62001;53.366;6.636;2023-06-22T10:40:19;10.13;;;6.75;;
52940;SDS011;62001;53.366;6.636;2023-06-22T10:42:45;6.93;;;6.18;;
52940;SDS011;62001;53.366;6.636;2023-06-22T10:45:11;10.68;;;7.05;;
52940;SDS011;62001;53.366;6.636;2023-06-22T10:47:37;7.13;;;6.43;;
52940;SDS011;62001;53.366;6.636;2023-06-22T10:50:03;8.20;;;6.07;;
52940;SDS011;62001;53.366;6.636;2023-06-22T10:52:30;7.22;;;5.80;;
52940;SDS011;62001;53.366;6.636;2023-06-22T10:54:56;8.30;;;5.72;;
52940;SDS011;62001;53.366;6.636;2023-06-22T10:57:22;5.72;;;4.93;;
52940;SDS011;62001;53.366;6.636;2023-06-22T10:59:48;7.70;;;5.65;;
52940;SDS011;62001;53.366;6.636;2023-06-22T11:02:14;8.55;;;5.43;;
52940;SDS011;62001;53.366;6.636;2023-06-22T11:04:40;6.35;;;5.43;;
52940;SDS011;62001;53.366;6.636;2023-06-22T11:07:06;10.43;;;5.97;;
52940;SDS011;62001;53.366;6.636;2023-06-22T11:09:31;7.88;;;5.78;;
52940;SDS011;62001;53.366;6.636;2023-06-22T11:11:57;7.95;;;5.97;;
52940;SDS011;62001;53.366;6.636;2023-06-22T11:14:24;8.35;;;6.18;;
52940;SDS011;62001;53.366;6.636;2023-06-22T11:16:50;5.90;;;4.70;;
52940;SDS011;62001;53.366;6.636;2023-06-22T11:19:17;8.07;;;5.95;;
52940;SDS011;62001;53.366;6.636;2023-06-22T11:21:43;7.53;;;4.63;;
52940;SDS011;62001;53.366;6.636;2023-06-22T11:24:11;7.07;;;4.78;;
52940;SDS011;62001;53.366;6.636;2023-06-22T11:26:37;5.90;;;3.97;;
52940;SDS011;62001;53.366;6.636;2023-06-22T11:29:02;8.85;;;4.45;;
52940;SDS011;62001;53.366;6.636;2023-06-22T11:31:32;8.20;;;5.10;;
52940;SDS011;62001;53.366;6.636;2023-06-22T11:33:58;6.68;;;4.70;;
52940;SDS011;62001;53.366;6.636;2023-06-22T11:36:24;5.70;;;4.72;;
52940;SDS011;62001;53.366;6.636;2023-06-22T11:38:51;7.05;;;4.10;;
52940;SDS011;62001;53.366;6.636;2023-06-22T11:41:17;9.02;;;5.25;;
52940;SDS011;62001;53.366;6.636;2023-06-22T11:43:42;6.20;;;4.38;;
52940;SDS011;62001;53.366;6.636;2023-06-22T11:46:09;6.47;;;3.83;;
52940;SDS011;62001;53.366;6.636;2023-06-22T11:48:35;4.30;;;2.88;;
52940;SDS011;62001;53.366;6.636;2023-06-22T11:51:01;3.67;;;3.00;;
52940;SDS011;62001;53.366;6.636;2023-06-22T11:53:28;5.28;;;4.18;;
52940;SDS011;62001;53.366;6.636;2023-06-22T11:55:55;4.50;;;3.40;;
52940;SDS011;62001;53.366;6.636;2023-06-22T11:58:21;5.40;;;4.38;;
52940;SDS011;62001;53.366;6.636;2023-06-22T12:00:48;5.60;;;3.33;;
52940;SDS011;62001;53.366;6.636;2023-06-22T12:03:14;5.55;;;2.90;;
52940;SDS011;62001;53.366;6.636;2023-06-22T12:05:41;4.95;;;2.95;;
52940;SDS011;62001;53.366;6.636;2023-06-22T12:08:07;5.05;;;4.00;;
52940;SDS011;62001;53.366;6.636;2023-06-22T12:10:33;4.43;;;3.40;;
52940;SDS011;62001;53.366;6.636;2023-06-22T12:12:59;5.30;;;3.58;;
52940;SDS011;62001;53.366;6.636;2023-06-22T12:15:25;5.43;;;3.80;;
52940;SDS011;62001;53.366;6.636;2023-06-22T12:17:52;5.65;;;3.72;;
52940;SDS011;62001;53.366;6.636;2023-06-22T12:20:18;4.88;;;4.03;;
52940;SDS011;62001;53.366;6.636;2023-06-22T12:22:44;6.18;;;3.63;;
52940;SDS011;62001;53.366;6.636;2023-06-22T12:25:10;5.15;;;3.30;;
52940;SDS011;62001;53.366;6.636;2023-06-22T12:27:36;5.05;;;2.92;;
52940;SDS011;62001;53.366;6.636;2023-06-22T12:30:03;4.20;;;3.28;;
52940;SDS011;62001;53.366;6.636;2023-06-22T12:32:29;5.53;;;2.90;;
52940;SDS011;62001;53.366;6.636;2023-06-22T12:34:55;4.30;;;3.20;;
52940;SDS011;62001;53.366;6.636;2023-06-22T12:37:21;3.00;;;2.58;;
52940;SDS011;62001;53.366;6.636;2023-06-22T12:39:48;5.93;;;2.63;;
52940;SDS011;62001;53.366;6.636;2023-06-22T12:42:14;3.97;;;2.28;;
52940;SDS011;62001;53.366;6.636;2023-06-22T12:44:41;6.07;;;2.70;;
52940;SDS011;62001;53.366;6.636;2023-06-22T12:47:06;7.60;;;2.22;;
52940;SDS011;62001;53.366;6.636;2023-06-22T12:49:34;3.90;;;2.40;;
52940;SDS011;62001;53.366;6.636;2023-06-22T12:52:00;3.63;;;2.13;;
52940;SDS011;62001;53.366;6.636;2023-06-22T12:54:27;5.43;;;2.60;;
52940;SDS011;62001;53.366;6.636;2023-06-22T12:56:55;6.37;;;2.17;;
52940;SDS011;62001;53.366;6.636;2023-06-22T13:01:50;5.47;;;2.22;;
52940;SDS011;62001;53.366;6.636;2023-06-22T13:04:16;4.00;;;2.20;;
52940;SDS011;62001;53.366;6.636;2023-06-22T13:06:43;3.65;;;2.40;;
52940;SDS011;62001;53.366;6.636;2023-06-22T13:09:13;6.25;;;2.80;;
52940;SDS011;62001;53.366;6.636;2023-06-22T13:11:40;5.40;;;2.58;;
52940;SDS011;62001;53.366;6.636;2023-06-22T13:14:06;5.72;;;2.70;;
52940;SDS011;62001;53.366;6.636;2023-06-22T13:16:32;5.07;;;2.53;;
52940;SDS011;62001;53.366;6.636;2023-06-22T13:18:58;4.15;;;2.60;;
52940;SDS011;62001;53.366;6.636;2023-06-22T13:21:24;4.22;;;2.63;;
52940;SDS011;62001;53.366;6.636;2023-06-22T13:23:50;3.92;;;2.85;;
52940;SDS011;62001;53.366;6.636;2023-06-22T13:26:15;4.82;;;2.72;;
52940;SDS011;62001;53.366;6.636;2023-06-22T13:28:41;4.05;;;2.75;;
52940;SDS011;62001;53.366;6.636;2023-06-22T13:31:07;4.93;;;2.60;;
52940;SDS011;62001;53.366;6.636;2023-06-22T13:33:33;3.67;;;2.83;;
52940;SDS011;62001;53.366;6.636;2023-06-22T13:35:59;4.82;;;2.58;;
52940;SDS011;62001;53.366;6.636;2023-06-22T13:38:25;4.10;;;2.33;;
52940;SDS011;62001;53.366;6.636;2023-06-22T13:40:51;4.45;;;2.40;;
52940;SDS011;62001;53.366;6.636;2023-06-22T13:43:16;3.78;;;2.15;;
52940;SDS011;62001;53.366;6.636;2023-06-22T13:45:43;4.88;;;2.40;;
52940;SDS011;62001;53.366;6.636;2023-06-22T13:48:09;3.17;;;2.40;;
52940;SDS011;62001;53.366;6.636;2023-06-22T13:50:35;4.28;;;2.10;;
52940;SDS011;62001;53.366;6.636;2023-06-22T13:53:01;6.50;;;2.55;;
52940;SDS011;62001;53.366;6.636;2023-06-22T13:55:27;6.63;;;2.58;;
52940;SDS011;62001;53.366;6.636;2023-06-22T13:57:53;5.82;;;2.47;;
52940;SDS011;62001;53.366;6.636;2023-06-22T14:00:19;4.05;;;2.33;;
52940;SDS011;62001;53.366;6.636;2023-06-22T14:02:45;3.58;;;2.33;;
52940;SDS011;62001;53.366;6.636;2023-06-22T14:05:10;5.43;;;2.45;;
52940;SDS011;62001;53.366;6.636;2023-06-22T14:07:37;4.55;;;2.80;;
52940;SDS011;62001;53.366;6.636;2023-06-22T14:10:03;4.15;;;2.58;;
52940;SDS011;62001;53.366;6.636;2023-06-22T14:12:29;10.60;;;2.90;;
52940;SDS011;62001;53.366;6.636;2023-06-22T14:14:55;3.30;;;2.35;;
52940;SDS011;62001;53.366;6.636;2023-06-22T14:17:22;9.65;;;2.60;;
52940;SDS011;62001;53.366;6.636;2023-06-22T14:19:50;4.07;;;2.50;;
52940;SDS011;62001;53.366;6.636;2023-06-22T14:22:21;4.35;;;2.58;;
52940;SDS011;62001;53.366;6.636;2023-06-22T14:24:47;3.63;;;2.30;;
52940;SDS011;62001;53.366;6.636;2023-06-22T14:27:14;3.30;;;2.13;;
52940;SDS011;62001;53.366;6.636;2023-06-22T14:29:40;4.78;;;2.63;;
52940;SDS011;62001;53.366;6.636;2023-06-22T14:32:07;3.42;;;2.47;;
52940;SDS011;62001;53.366;6.636;2023-06-22T14:34:33;6.63;;;2.55;;
52940;SDS011;62001;53.366;6.636;2023-06-22T14:37:07;5.18;;;2.20;;
52940;SDS011;62001;53.366;6.636;2023-06-22T14:39:35;5.13;;;2.35;;
52940;SDS011;62001;53.366;6.636;2023-06-22T14:42:01;4.93;;;2.13;;
52940;SDS011;62001;53.366;6.636;2023-06-22T14:44:28;4.90;;;1.98;;
52940;SDS011;62001;53.366;6.636;2023-06-22T14:46:55;2.80;;;2.17;;